Latest Weather Observations for Flinders Reef

IDQ60801

Issued at 9:02 am EST Thursday 27 April 2017 (issued every 30 minutes, with the page automatically refreshed every 10 minutes)

About weather observations | Map of weather stations | Latest weather observations for QLD | Other Formats
Station Details ID: 200783 Name: FLINDERS REEF Lat: -17.72 Lon: 148.45 Height: 2.6 m
Data from the previous 72 hours. | See also: Recent months at Flinders Reef
Date/Time
EST
Temp
°C
App
Temp
°C
Dew
Point
°C
Rel
Hum
%
Delta-T
°C
Wind Press
QNH
hPa
Press
MSL
hPa
Rain since
9am
mm
Dir  Spd
km/h
Gust
km/h
Spd
kts
Gust
kts
27/09:00am 25.4 - - - - SSW 7 11 4 6 1014.1 - -
27/08:30am 25.4 - - - - SSW 9 11 5 6 1013.8 - -
27/08:24am 25.4 - - - - SSW 7 - 4 - - 1013.7 -
27/08:00am 25.5 - - - - SW 7 11 4 6 1013.5 - -
27/07:30am 25.5 - - - - SSW 2 7 1 4 1013.3 - -
27/07:24am 25.4 - - - - CALM 0 - 0 - - 1013.3 -
27/07:00am 25.3 - - - - SSW 6 7 3 4 1013.0 - -
27/06:30am 25.2 - - - - CALM 0 0 0 0 1012.5 - -
27/06:24am 24.9 - - - - CALM 0 - 0 - - 1012.3 -
27/06:00am 24.9 - - - - CALM 0 0 0 0 1012.2 - -
27/05:30am 25.1 - - - - CALM 0 0 0 0 1011.8 - -
27/05:24am 25.1 - - - - CALM 0 - 0 - - 1011.7 -
27/05:00am 25.1 - - - - NE 6 9 3 5 1011.6 - -
27/04:30am 25.2 - - - - NE 7 9 4 5 1011.4 - -
27/04:24am 25.2 - - - - NE 7 - 4 - - 1011.4 -
27/04:00am 25.1 - - - - NE 9 11 5 6 1011.3 - -
27/03:30am 25.3 - - - - ENE 11 13 6 7 1011.1 - -
27/03:24am 25.2 - - - - ENE 11 - 6 - - 1011.0 -
27/03:00am 25.4 - - - - ENE 11 13 6 7 1011.2 - -
27/02:30am 25.3 - - - - ENE 13 17 7 9 1011.6 - -
27/02:24am 25.3 - - - - ENE 11 - 6 - - 1011.4 -
27/02:00am 25.3 - - - - ENE 11 13 6 7 1011.7 - -
27/01:30am 25.4 - - - - ENE 9 11 5 6 1012.2 - -
27/01:24am 25.4 - - - - ENE 7 - 4 - - 1012.1 -
27/01:00am 25.6 - - - - ENE 7 9 4 5 1012.6 - -
27/12:30am 25.4 - - - - ENE 7 9 4 5 1012.9 - -
27/12:24am 25.4 - - - - ENE 6 - 3 - - 1012.8 -
27/12:00am 25.5 - - - - ENE 7 9 4 5 1013.2 - -
 
Date/Time
EST
Temp
°C
App
Temp
°C
Dew
Point
°C
Rel
Hum
%
Delta-T
°C
Wind Press
QNH
hPa
Press
MSL
hPa
Rain since
9am
mm
Dir  Spd
km/h
Gust
km/h
Spd
kts
Gust
kts
26/11:30pm 25.5 - - - - ENE 7 9 4 5 1013.3 - -
26/11:24pm 25.5 - - - - ENE 7 - 4 - - 1013.2 -
26/11:00pm 25.4 - - - - ENE 9 9 5 5 1013.3 - -
26/10:30pm 25.6 - - - - NE 7 11 4 6 1013.3 - -
26/10:24pm 25.6 - - - - NE 7 - 4 - - 1013.1 -
26/10:00pm 25.7 - - - - NE 13 17 7 9 1013.4 - -
26/09:30pm 25.6 - - - - E 11 13 6 7 1013.4 - -
26/09:24pm 25.7 - - - - E 11 - 6 - - 1013.4 -
26/09:00pm 25.7 - - - - ESE 9 11 5 6 1013.6 - -
26/08:30pm 25.7 - - - - ESE 9 11 5 6 1013.5 - -
26/08:24pm 25.5 - - - - ESE 9 - 5 - - 1013.4 -
26/08:00pm 25.9 - - - - SE 11 15 6 8 1013.3 - -
26/07:30pm 25.7 - - - - SE 13 15 7 8 1013.2 - -
26/07:24pm 25.9 - - - - SE 13 - 7 - - 1012.9 -
26/07:00pm 25.9 - - - - SE 13 17 7 9 1012.9 - -
26/06:30pm 25.7 - - - - SE 15 17 8 9 1012.5 - -
26/06:24pm 25.6 - - - - SE 15 - 8 - - 1012.4 -
26/06:00pm 25.8 - - - - SE 13 15 7 8 1012.3 - -
26/05:30pm 25.8 - - - - SSE 15 17 8 9 1012.0 - -
26/05:24pm 25.8 - - - - SSE 15 - 8 - - 1011.9 -
26/05:00pm 25.8 - - - - SSE 13 15 7 8 1011.8 - -
26/04:30pm 25.7 - - - - SSE 13 15 7 8 1011.7 - -
26/04:24pm 25.9 - - - - SSE 13 - 7 - - 1011.6 -
26/04:00pm 25.9 - - - - SSE 15 17 8 9 1011.7 - -
26/03:30pm 25.8 - - - - S 15 17 8 9 1011.5 - -
26/03:24pm 25.8 - - - - S 15 - 8 - - 1011.4 -
26/03:00pm 26.0 - - - - SSE 17 19 9 10 1011.5 - -
26/02:30pm 25.8 - - - - S 17 19 9 10 1011.7 - -
26/02:24pm 26.0 - - - - S 15 - 8 - - 1011.7 -
26/02:00pm 25.9 - - - - SSE 17 19 9 10 1012.0 - -
26/01:30pm 26.1 - - - - SSE 15 17 8 9 1012.3 - -
26/01:24pm 26.5 - - - - SSE 15 - 8 - - 1012.3 -
26/01:00pm 26.1 - - - - SSE 15 17 8 9 1012.8 - -
26/12:30pm 26.4 - - - - SSE 15 17 8 9 1013.0 - -
26/12:24pm 26.0 - - - - SSE 15 - 8 - - 1013.0 -
26/12:00pm 26.0 - - - - SE 13 17 7 9 1013.6 - -
26/11:30am 26.2 - - - - SE 15 17 8 9 1014.0 - -
26/11:24am 26.1 - - - - SE 15 - 8 - - 1014.0 -
26/11:00am 26.0 - - - - SSE 15 17 8 9 1014.6 - -
26/10:30am 26.1 - - - - SE 15 19 8 10 1014.9 - -
26/10:24am 26.0 - - - - SE 15 - 8 - - 1014.8 -
26/10:00am 26.0 - - - - SE 15 19 8 10 1015.0 - -
26/09:30am 26.0 - - - - SE 17 20 9 11 1015.0 - -
26/09:24am 26.0 - - - - SE 17 - 9 - - 1014.8 -
26/09:00am 26.0 - - - - SE 17 20 9 11 1014.8 - -
26/08:30am 25.9 - - - - SE 17 19 9 10 1014.8 - -
26/08:24am 26.0 - - - - SE 17 - 9 - - 1014.7 -
26/08:00am 25.9 - - - - SE 17 20 9 11 1014.6 - -
26/07:30am 25.6 - - - - SE 17 20 9 11 1014.3 - -
26/07:24am 25.7 - - - - SE 17 - 9 - - 1014.2 -
26/07:00am 25.5 - - - - SSE 17 19 9 10 1014.3 - -
26/06:30am 25.5 - - - - SSE 17 20 9 11 1014.0 - -
26/06:24am 25.7 - - - - SSE 17 - 9 - - 1013.9 -
26/06:00am 25.5 - - - - SE 17 19 9 10 1013.6 - -
26/05:30am 25.6 - - - - SSE 17 20 9 11 1013.3 - -
26/05:24am 25.4 - - - - SSE 17 - 9 - - 1013.1 -
26/05:00am 25.5 - - - - SE 17 19 9 10 1013.2 - -
26/04:30am 25.5 - - - - SE 17 20 9 11 1012.9 - -
26/04:24am 25.3 - - - - SE 17 - 9 - - 1012.9 -
26/04:00am 25.6 - - - - SE 17 19 9 10 1012.9 - -
26/03:30am 25.4 - - - - SE 15 19 8 10 1013.0 - -
26/03:24am 25.4 - - - - SE 15 - 8 - - 1012.9 -
26/03:00am 25.3 - - - - SE 17 20 9 11 1013.1 - -
26/02:30am 25.6 - - - - SE 19 22 10 12 1013.3 - -
26/02:24am 25.8 - - - - SE 17 - 9 - - 1013.2 -
26/02:00am 25.5 - - - - SE 17 20 9 11 1013.7 - -
26/01:30am 25.5 - - - - SE 19 20 10 11 1014.0 - -
26/01:24am 25.6 - - - - SE 19 - 10 - - 1014.0 -
26/01:00am 25.7 - - - - SE 19 20 10 11 1014.2 - -
26/12:30am 25.8 - - - - ESE 19 22 10 12 1014.6 - -
26/12:24am 25.6 - - - - SE 20 - 11 - - 1014.5 -
26/12:00am 25.7 - - - - SE 19 22 10 12 1014.8 - -
 
Date/Time
EST
Temp
°C
App
Temp
°C
Dew
Point
°C
Rel
Hum
%
Delta-T
°C
Wind Press
QNH
hPa
Press
MSL
hPa
Rain since
9am
mm
Dir  Spd
km/h
Gust
km/h
Spd
kts
Gust
kts
25/11:30pm 25.5 - - - - SE 19 22 10 12 1014.8 - -
25/11:24pm 25.8 - - - - SE 20 - 11 - - 1014.8 -
25/11:00pm 25.8 - - - - SE 20 22 11 12 1015.2 - -
25/10:30pm 26.1 - - - - SE 20 24 11 13 1015.1 - -
25/10:24pm 25.9 - - - - SE 20 - 11 - - 1015.0 -
25/10:00pm 25.9 - - - - SE 20 24 11 13 1015.2 - -
25/09:30pm 25.8 - - - - SE 24 28 13 15 1015.2 - -
25/09:24pm 26.1 - - - - SE 22 - 12 - - 1015.2 -
25/09:00pm 25.8 - - - - SSE 24 28 13 15 1015.3 - -
25/08:30pm 26.1 - - - - SSE 26 30 14 16 1015.2 - -
25/08:24pm 25.9 - - - - SSE 26 - 14 - - 1015.1 -
25/08:00pm 26.2 - - - - SSE 24 28 13 15 1015.0 - -
25/07:30pm 26.1 - - - - SE 24 28 13 15 1014.7 - -
25/07:24pm 26.1 - - - - SE 24 - 13 - - 1014.5 -
25/07:00pm 26.0 - - - - SE 26 30 14 16 1014.3 - -
25/06:30pm 26.2 - - - - SE 26 30 14 16 1013.8 - -
25/06:24pm 26.2 - - - - SE 26 - 14 - - 1013.7 -
25/06:00pm 26.2 - - - - SE 26 30 14 16 1013.6 - -
25/05:30pm 25.9 - - - - SSE 22 26 12 14 1013.4 - -
25/05:24pm 26.1 - - - - SSE 22 - 12 - - 1013.3 -
25/05:00pm 26.2 - - - - SSE 22 24 12 13 1013.4 - -
25/04:30pm 26.3 - - - - SE 20 24 11 13 1013.3 - -
25/04:24pm 26.1 - - - - SE 20 - 11 - - 1013.1 -
25/04:00pm 26.3 - - - - SE 20 24 11 13 1013.1 - -
25/03:30pm 26.3 - - - - SE 20 24 11 13 1013.0 - -
25/03:24pm 26.3 - - - - SE 20 - 11 - - 1012.9 -
25/03:00pm 26.5 - - - - SE 20 24 11 13 1013.0 - -
25/02:30pm 26.5 - - - - SE 20 24 11 13 1013.1 - -
25/02:24pm 26.4 - - - - SE 20 - 11 - - 1013.0 -
25/02:00pm 26.4 - - - - SE 20 24 11 13 1013.2 - -
25/01:30pm 26.4 - - - - SE 22 24 12 13 1013.6 - -
25/01:24pm 26.6 - - - - SE 22 - 12 - - 1013.5 -
25/01:00pm 26.4 - - - - ESE 22 26 12 14 1013.9 - -
25/12:30pm 26.6 - - - - ESE 20 24 11 13 1014.2 - -
25/12:24pm 26.3 - - - - ESE 20 - 11 - - 1014.3 -
25/12:00pm 26.2 - - - - SE 22 26 12 14 1014.7 - -
25/11:30am 26.2 - - - - ESE 22 28 12 15 1015.1 - -
25/11:24am 26.4 - - - - ESE 22 - 12 - - 1015.1 -
25/11:00am 26.2 - - - - ESE 24 28 13 15 1015.4 - -
25/10:30am 26.2 - - - - ESE 24 30 13 16 1015.8 - -
25/10:24am 26.5 - - - - ESE 24 - 13 - - 1015.8 -
25/10:00am 26.0 - - - - ESE 26 30 14 16 1016.0 - -
25/09:30am 26.2 - - - - ESE 26 32 14 17 1016.1 - -
25/09:24am 26.0 - - - - ESE 26 - 14 - - 1016.0 -
25/09:00am 26.0 - - - - ESE 28 33 15 18 1016.0 - -
25/08:30am 25.9 - - - - ESE 30 35 16 19 1015.7 - -
25/08:24am 26.1 - - - - ESE 28 - 15 - - 1015.6 -
25/08:00am 25.9 - - - - SE 30 32 16 17 1015.6 - -
25/07:30am 26.1 - - - - SE 28 33 15 18 1015.6 - -
25/07:24am 25.8 - - - - SE 30 - 16 - - 1015.4 -
25/07:00am 25.9 - - - - SE 32 35 17 19 1015.2 - -
25/06:30am 25.8 - - - - SE 30 35 16 19 1014.9 - -
25/06:24am 25.8 - - - - SE 30 - 16 - - 1014.7 -
25/06:00am 25.7 - - - - SE 32 35 17 19 1014.4 - -
25/05:30am 25.4 - - - - SE 33 37 18 20 1013.9 - -
25/05:24am 25.7 - - - - SSE 33 - 18 - - 1013.7 -
25/05:00am 25.6 - - - - SE 33 39 18 21 1013.6 - -
25/04:30am 25.7 - - - - SSE 35 39 19 21 1013.3 - -
25/04:24am 25.9 - - - - SE 35 - 19 - - 1013.1 -
25/04:00am 26.0 - - - - SE 33 39 18 21 1013.2 - -
25/03:30am 25.7 - - - - SE 33 39 18 21 1013.2 - -
25/03:24am 25.9 - - - - SE 33 - 18 - - 1013.1 -
25/03:00am 25.8 - - - - SE 33 39 18 21 1013.2 - -
25/02:30am 25.8 - - - - SE 35 41 19 22 1013.2 - -
25/02:24am 25.9 - - - - SE 37 - 20 - - 1013.2 -
25/02:00am 25.7 - - - - SE 35 39 19 21 1013.6 - -
25/01:30am 25.3 - - - - SE 32 39 17 21 1014.0 - -
25/01:24am 25.0 - - - - SE 32 - 17 - - 1014.0 -
25/01:00am 25.0 - - - - SE 33 44 18 24 1014.4 - -
25/12:30am 25.4 - - - - SSE 33 37 18 20 1014.6 - -
25/12:24am 25.7 - - - - SSE 30 - 16 - - 1014.7 -
25/12:00am 25.5 - - - - SSE 32 35 17 19 1015.0 - -
 
Date/Time
EST
Temp
°C
App
Temp
°C
Dew
Point
°C
Rel
Hum
%
Delta-T
°C
Wind Press
QNH
hPa
Press
MSL
hPa
Rain since
9am
mm
Dir  Spd
km/h
Gust
km/h
Spd
kts
Gust
kts
24/11:30pm 25.9 - - - - SE 32 35 17 19 1015.4 - -
24/11:24pm 26.0 - - - - SE 32 - 17 - - 1015.3 -
24/11:00pm 26.0 - - - - SE 33 41 18 22 1015.5 - -
24/10:30pm 25.7 - - - - SE 35 41 19 22 1015.6 - -
24/10:24pm 25.8 - - - - SE 37 - 20 - - 1015.5 -
24/10:00pm 25.8 - - - - SE 35 41 19 22 1015.9 - -
24/09:30pm 25.8 - - - - SE 35 43 19 23 1016.0 - -
24/09:24pm 25.4 - - - - SE 33 - 18 - - 1015.9 -
24/09:00pm 25.2 - - - - SE 32 37 17 20 1016.0 - -
24/08:30pm 25.2 - - - - SE 37 41 20 22 1016.1 - -
24/08:24pm 25.7 - - - - SE 35 - 19 - - 1016.0 -
24/08:00pm 25.4 - - - - SE 33 39 18 21 1015.9 - -
24/07:30pm 25.2 - - - - SE 33 37 18 20 1015.6 - -
24/07:24pm 25.2 - - - - SE 33 - 18 - - 1015.5 -
24/07:00pm 25.3 - - - - SE 35 43 19 23 1015.3 - -
24/06:30pm 25.7 - - - - SSE 32 37 17 20 1015.0 - -
24/06:24pm 25.6 - - - - SSE 33 - 18 - - 1014.8 -
24/06:00pm 25.3 - - - - SSE 33 39 18 21 1014.9 - -
24/05:30pm 26.3 - - - - SSE 30 33 16 18 1014.6 - -
24/05:24pm 26.1 - - - - SSE 30 - 16 - - 1014.5 -
24/05:00pm 25.9 - - - - SSE 28 33 15 18 1014.3 - -
24/04:30pm 26.1 - - - - SSE 26 32 14 17 1014.0 - -
24/04:24pm 26.0 - - - - SE 28 - 15 - - 1013.8 -
24/04:00pm 26.2 - - - - SE 28 32 15 17 1013.7 - -
24/03:30pm 26.3 - - - - SE 26 32 14 17 1013.5 - -
24/03:24pm 26.5 - - - - SSE 26 - 14 - - 1013.4 -
24/03:00pm 26.1 - - - - SE 26 30 14 16 1013.6 - -
24/02:30pm 26.2 - - - - SSE 28 33 15 18 1013.8 - -
24/02:24pm 26.1 - - - - SSE 28 - 15 - - 1013.7 -
24/02:00pm 26.4 - - - - SE 26 30 14 16 1013.9 - -
24/01:30pm 26.4 - - - - SE 28 33 15 18 1014.1 - -
24/01:24pm 26.5 - - - - SE 28 - 15 - - 1014.1 -
24/01:00pm 26.5 - - - - SE 28 32 15 17 1014.5 - -
24/12:30pm 26.4 - - - - SE 30 33 16 18 1014.8 - -
24/12:24pm 26.7 - - - - SE 30 - 16 - - 1014.7 -
24/12:00pm 26.4 - - - - SE 28 33 15 18 1015.1 - -
24/11:30am 26.5 - - - - SE 26 32 14 17 1015.4 - -
24/11:24am 26.4 - - - - SE 28 - 15 - - 1015.3 -
24/11:00am 26.5 - - - - SE 32 35 17 19 1015.7 - -
24/10:30am 26.4 - - - - SE 30 35 16 19 1015.9 - -
24/10:24am 26.3 - - - - SE 32 - 17 - - 1015.8 -
24/10:00am 26.3 - - - - SE 30 35 16 19 1016.0 - -
24/09:30am 26.5 - - - - SE 32 35 17 19 1016.4 - -
24/09:24am 26.3 - - - - SE 32 - 17 - - 1016.2 -

Other Formats:

Comma delimited format used in spreadsheet applications
http://www.bom.gov.au/fwo/IDQ60801/IDQ60801.94290.axf

JavaScript Object Notation format (JSON) in row-major order
http://www.bom.gov.au/fwo/IDQ60801/IDQ60801.94290.json